sensor_id;sensor_type;location;lat;lon;timestamp;pressure;altitude;pressure_sealevel;temperature;humidity
26697;BME280;14312;52.614;13.496;2023-04-26T00:02:30;100677.78;;;7.84;49.79
26697;BME280;14312;52.614;13.496;2023-04-26T00:05:17;100670.84;;;7.83;49.73
26697;BME280;14312;52.614;13.496;2023-04-26T00:08:04;100672.94;;;7.81;49.96
26697;BME280;14312;52.614;13.496;2023-04-26T00:10:50;100677.41;;;7.80;50.05
26697;BME280;14312;52.614;13.496;2023-04-26T00:13:35;100687.66;;;7.77;50.15
26697;BME280;14312;52.614;13.496;2023-04-26T00:16:22;100681.75;;;7.75;50.00
26697;BME280;14312;52.614;13.496;2023-04-26T00:19:08;100687.50;;;7.72;50.32
26697;BME280;14312;52.614;13.496;2023-04-26T00:21:55;100686.09;;;7.69;50.24
26697;BME280;14312;52.614;13.496;2023-04-26T00:24:41;100688.94;;;7.68;50.18
26697;BME280;14312;52.614;13.496;2023-04-26T00:27:28;100691.03;;;7.66;50.17
26697;BME280;14312;52.614;13.496;2023-04-26T00:30:14;100694.94;;;7.63;50.77
26697;BME280;14312;52.614;13.496;2023-04-26T00:33:00;100689.84;;;7.62;50.63
26697;BME280;14312;52.614;13.496;2023-04-26T00:35:46;100689.25;;;7.60;50.62
26697;BME280;14312;52.614;13.496;2023-04-26T00:38:32;100691.09;;;7.59;50.64
26697;BME280;14312;52.614;13.496;2023-04-26T00:41:17;100685.00;;;7.59;50.76
26697;BME280;14312;52.614;13.496;2023-04-26T00:44:03;100686.22;;;7.56;50.67
26697;BME280;14312;52.614;13.496;2023-04-26T00:46:51;100690.13;;;7.54;51.00
26697;BME280;14312;52.614;13.496;2023-04-26T00:49:37;100689.53;;;7.52;50.90
26697;BME280;14312;52.614;13.496;2023-04-26T00:52:24;100692.41;;;7.50;50.90
26697;BME280;14312;52.614;13.496;2023-04-26T00:55:11;100693.63;;;7.47;51.11
26697;BME280;14312;52.614;13.496;2023-04-26T00:57:57;100687.78;;;7.45;50.88
26697;BME280;14312;52.614;13.496;2023-04-26T01:00:43;100685.53;;;7.42;51.17
26697;BME280;14312;52.614;13.496;2023-04-26T01:03:29;100692.06;;;7.40;51.46
26697;BME280;14312;52.614;13.496;2023-04-26T01:06:15;100689.66;;;7.38;51.50
26697;BME280;14312;52.614;13.496;2023-04-26T01:09:04;100697.81;;;7.37;51.57
26697;BME280;14312;52.614;13.496;2023-04-26T01:11:55;100699.06;;;7.34;51.36
26697;BME280;14312;52.614;13.496;2023-04-26T01:14:43;100695.00;;;7.32;51.70
26697;BME280;14312;52.614;13.496;2023-04-26T01:17:30;100701.56;;;7.29;51.69
26697;BME280;14312;52.614;13.496;2023-04-26T01:20:16;100695.06;;;7.25;51.56
26697;BME280;14312;52.614;13.496;2023-04-26T01:23:03;100695.50;;;7.22;51.63
26697;BME280;14312;52.614;13.496;2023-04-26T01:25:49;100703.66;;;7.21;51.64
26697;BME280;14312;52.614;13.496;2023-04-26T01:28:35;100705.94;;;7.17;51.59
26697;BME280;14312;52.614;13.496;2023-04-26T01:31:21;100703.72;;;7.14;51.42
26697;BME280;14312;52.614;13.496;2023-04-26T01:34:07;100707.03;;;7.10;51.65
26697;BME280;14312;52.614;13.496;2023-04-26T01:36:53;100705.59;;;7.07;52.02
26697;BME280;14312;52.614;13.496;2023-04-26T01:39:39;100703.38;;;7.04;51.93
26697;BME280;14312;52.614;13.496;2023-04-26T01:42:25;100709.13;;;7.01;51.84
26697;BME280;14312;52.614;13.496;2023-04-26T01:45:11;100716.47;;;6.99;52.01
26697;BME280;14312;52.614;13.496;2023-04-26T01:47:57;100718.94;;;6.94;52.23
26697;BME280;14312;52.614;13.496;2023-04-26T01:50:43;100715.69;;;6.92;52.41
26697;BME280;14312;52.614;13.496;2023-04-26T01:53:29;100723.84;;;6.90;52.40
26697;BME280;14312;52.614;13.496;2023-04-26T01:56:15;100715.53;;;6.87;52.50
26697;BME280;14312;52.614;13.496;2023-04-26T01:59:01;100712.88;;;6.87;52.41
26697;BME280;14312;52.614;13.496;2023-04-26T02:01:47;100721.44;;;6.82;52.67
26697;BME280;14312;52.614;13.496;2023-04-26T02:04:33;100726.38;;;6.79;52.89
26697;BME280;14312;52.614;13.496;2023-04-26T02:07:19;100715.78;;;6.79;52.72
26697;BME280;14312;52.614;13.496;2023-04-26T02:10:05;100716.78;;;6.78;52.85
26697;BME280;14312;52.614;13.496;2023-04-26T02:12:51;100716.63;;;6.73;52.76
26697;BME280;14312;52.614;13.496;2023-04-26T02:15:37;100720.28;;;6.72;52.84
26697;BME280;14312;52.614;13.496;2023-04-26T02:18:24;100721.31;;;6.71;52.84
26697;BME280;14312;52.614;13.496;2023-04-26T02:21:10;100717.03;;;6.69;53.01
26697;BME280;14312;52.614;13.496;2023-04-26T02:23:56;100712.19;;;6.66;53.06
26697;BME280;14312;52.614;13.496;2023-04-26T02:26:42;100715.03;;;6.65;53.16
26697;BME280;14312;52.614;13.496;2023-04-26T02:29:28;100716.25;;;6.62;53.24
26697;BME280;14312;52.614;13.496;2023-04-26T02:32:14;100712.22;;;6.60;53.34
26697;BME280;14312;52.614;13.496;2023-04-26T02:35:01;100716.91;;;6.58;53.37
26697;BME280;14312;52.614;13.496;2023-04-26T02:37:47;100714.66;;;6.55;53.58
26697;BME280;14312;52.614;13.496;2023-04-26T02:40:37;100717.56;;;6.53;53.69
26697;BME280;14312;52.614;13.496;2023-04-26T02:43:23;100709.00;;;6.51;53.60
26697;BME280;14312;52.614;13.496;2023-04-26T02:46:08;100717.97;;;6.50;53.73
26697;BME280;14312;52.614;13.496;2023-04-26T02:48:54;100718.38;;;6.47;53.89
26697;BME280;14312;52.614;13.496;2023-04-26T02:51:40;100714.13;;;6.46;53.74
26697;BME280;14312;52.614;13.496;2023-04-26T02:54:26;100720.44;;;6.45;53.72
26697;BME280;14312;52.614;13.496;2023-04-26T02:57:12;100712.50;;;6.45;53.84
26697;BME280;14312;52.614;13.496;2023-04-26T02:59:58;100717.38;;;6.42;53.68
26697;BME280;14312;52.614;13.496;2023-04-26T03:02:44;100715.56;;;6.42;53.85
26697;BME280;14312;52.614;13.496;2023-04-26T03:05:30;100720.22;;;6.40;53.67
26697;BME280;14312;52.614;13.496;2023-04-26T03:08:16;100717.59;;;6.40;53.74
26697;BME280;14312;52.614;13.496;2023-04-26T03:11:02;100712.72;;;6.37;53.97
26697;BME280;14312;52.614;13.496;2023-04-26T03:13:48;100723.31;;;6.37;54.17
26697;BME280;14312;52.614;13.496;2023-04-26T03:16:40;100714.78;;;6.35;55.39
26697;BME280;14312;52.614;13.496;2023-04-26T03:19:27;100719.03;;;6.36;54.10
26697;BME280;14312;52.614;13.496;2023-04-26T03:22:13;100720.06;;;6.35;54.01
26697;BME280;14312;52.614;13.496;2023-04-26T03:25:01;100716.81;;;6.33;53.94
26697;BME280;14312;52.614;13.496;2023-04-26T03:27:46;100727.38;;;6.33;54.25
26697;BME280;14312;52.614;13.496;2023-04-26T03:30:32;100718.88;;;6.31;54.33
26697;BME280;14312;52.614;13.496;2023-04-26T03:33:18;100735.97;;;6.28;54.45
26697;BME280;14312;52.614;13.496;2023-04-26T03:36:05;100729.03;;;6.27;54.23
26697;BME280;14312;52.614;13.496;2023-04-26T03:38:51;100727.66;;;6.25;54.37
26697;BME280;14312;52.614;13.496;2023-04-26T03:41:37;100743.53;;;6.25;54.54
26697;BME280;14312;52.614;13.496;2023-04-26T03:44:25;100737.19;;;6.26;54.59
26697;BME280;14312;52.614;13.496;2023-04-26T03:47:11;100737.41;;;6.24;54.54
26697;BME280;14312;52.614;13.496;2023-04-26T03:49:57;100740.88;;;6.25;54.88
26697;BME280;14312;52.614;13.496;2023-04-26T03:52:43;100735.59;;;6.25;54.76
26697;BME280;14312;52.614;13.496;2023-04-26T03:55:29;100737.63;;;6.23;54.59
26697;BME280;14312;52.614;13.496;2023-04-26T03:58:15;100748.19;;;6.23;54.94
26697;BME280;14312;52.614;13.496;2023-04-26T04:01:00;100745.56;;;6.23;54.56
26697;BME280;14312;52.614;13.496;2023-04-26T04:03:46;100758.78;;;6.23;55.01
26697;BME280;14312;52.614;13.496;2023-04-26T04:06:32;100740.88;;;6.12;54.78
26697;BME280;14312;52.614;13.496;2023-04-26T04:09:18;100744.94;;;6.21;55.05
26697;BME280;14312;52.614;13.496;2023-04-26T04:12:04;100751.88;;;6.22;55.08
26697;BME280;14312;52.614;13.496;2023-04-26T04:14:50;100751.06;;;6.21;55.18
26697;BME280;14312;52.614;13.496;2023-04-26T04:17:37;100752.69;;;6.22;55.37
26697;BME280;14312;52.614;13.496;2023-04-26T04:20:23;100751.88;;;6.22;55.40
26697;BME280;14312;52.614;13.496;2023-04-26T04:23:09;100747.38;;;6.22;55.25
26697;BME280;14312;52.614;13.496;2023-04-26T04:25:55;100751.47;;;6.25;55.59
26697;BME280;14312;52.614;13.496;2023-04-26T04:28:41;100762.81;;;6.25;55.40
26697;BME280;14312;52.614;13.496;2023-04-26T04:31:27;100756.75;;;6.25;55.72
26697;BME280;14312;52.614;13.496;2023-04-26T04:34:13;100759.97;;;6.27;55.46
26697;BME280;14312;52.614;13.496;2023-04-26T04:36:59;100757.94;;;6.29;55.79
26697;BME280;14312;52.614;13.496;2023-04-26T04:39:45;100766.50;;;6.31;55.53
26697;BME280;14312;52.614;13.496;2023-04-26T04:42:31;100764.44;;;6.33;55.52
26697;BME280;14312;52.614;13.496;2023-04-26T04:45:17;100760.78;;;6.34;55.55
26697;BME280;14312;52.614;13.496;2023-04-26T04:48:03;100769.31;;;6.36;55.82
26697;BME280;14312;52.614;13.496;2023-04-26T04:50:49;100769.69;;;6.40;56.06
26697;BME280;14312;52.614;13.496;2023-04-26T04:53:35;100785.19;;;6.43;55.81
26697;BME280;14312;52.614;13.496;2023-04-26T04:56:22;100776.03;;;6.45;56.17
26697;BME280;14312;52.614;13.496;2023-04-26T04:59:08;100772.94;;;6.48;55.96
26697;BME280;14312;52.614;13.496;2023-04-26T05:01:54;100778.44;;;6.53;55.89
26697;BME280;14312;52.614;13.496;2023-04-26T05:04:40;100779.03;;;6.55;56.08
26697;BME280;14312;52.614;13.496;2023-04-26T05:07:26;100787.94;;;6.61;56.16
26697;BME280;14312;52.614;13.496;2023-04-26T05:10:12;100793.66;;;6.64;56.15
26697;BME280;14312;52.614;13.496;2023-04-26T05:12:59;100795.91;;;6.67;56.57
26697;BME280;14312;52.614;13.496;2023-04-26T05:15:45;100792.81;;;6.71;56.40
26697;BME280;14312;52.614;13.496;2023-04-26T05:18:31;100797.25;;;6.77;56.33
26697;BME280;14312;52.614;13.496;2023-04-26T05:21:17;100802.16;;;6.80;56.67
26697;BME280;14312;52.614;13.496;2023-04-26T05:24:03;100817.59;;;6.83;56.36
26697;BME280;14312;52.614;13.496;2023-04-26T05:26:49;100806.75;;;6.91;56.41
26697;BME280;14312;52.614;13.496;2023-04-26T05:29:35;100805.34;;;6.95;56.23
26697;BME280;14312;52.614;13.496;2023-04-26T05:32:20;100811.41;;;7.02;56.47
26697;BME280;14312;52.614;13.496;2023-04-26T05:35:07;100815.84;;;7.08;56.41
26697;BME280;14312;52.614;13.496;2023-04-26T05:37:53;100812.34;;;7.14;56.45
26697;BME280;14312;52.614;13.496;2023-04-26T05:40:39;100817.00;;;7.19;56.45
26697;BME280;14312;52.614;13.496;2023-04-26T05:43:25;100809.25;;;7.24;56.25
26697;BME280;14312;52.614;13.496;2023-04-26T05:46:11;100825.09;;;7.30;56.22
26697;BME280;14312;52.614;13.496;2023-04-26T05:48:57;100825.06;;;7.37;56.16
26697;BME280;14312;52.614;13.496;2023-04-26T05:51:43;100820.72;;;7.42;56.22
26697;BME280;14312;52.614;13.496;2023-04-26T05:54:29;100824.34;;;7.48;56.23
26697;BME280;14312;52.614;13.496;2023-04-26T05:57:15;100830.06;;;7.52;56.35
26697;BME280;14312;52.614;13.496;2023-04-26T06:00:03;100839.00;;;7.57;56.21
26697;BME280;14312;52.614;13.496;2023-04-26T06:02:50;100840.78;;;7.63;56.20
26697;BME280;14312;52.614;13.496;2023-04-26T06:05:36;100834.59;;;7.69;56.27
26697;BME280;14312;52.614;13.496;2023-04-26T06:08:23;100830.06;;;7.76;56.49
26697;BME280;14312;52.614;13.496;2023-04-26T06:11:09;100831.63;;;7.84;56.33
26697;BME280;14312;52.614;13.496;2023-04-26T06:13:55;100832.38;;;7.91;56.19
26697;BME280;14312;52.614;13.496;2023-04-26T06:16:41;100846.41;;;7.98;56.14
26697;BME280;14312;52.614;13.496;2023-04-26T06:19:27;100839.19;;;8.05;56.07
26697;BME280;14312;52.614;13.496;2023-04-26T06:22:13;100830.97;;;8.13;55.85
26697;BME280;14312;52.614;13.496;2023-04-26T06:24:59;100831.13;;;8.18;55.93
26697;BME280;14312;52.614;13.496;2023-04-26T06:27:45;100829.81;;;8.27;55.88
26697;BME280;14312;52.614;13.496;2023-04-26T06:30:31;100838.97;;;8.32;55.70
26697;BME280;14312;52.614;13.496;2023-04-26T06:33:17;100837.66;;;8.41;56.04
26697;BME280;14312;52.614;13.496;2023-04-26T06:36:03;100843.72;;;8.48;55.87
26697;BME280;14312;52.614;13.496;2023-04-26T06:38:49;100840.78;;;8.56;55.58
26697;BME280;14312;52.614;13.496;2023-04-26T06:41:36;100834.94;;;8.66;55.65
26697;BME280;14312;52.614;13.496;2023-04-26T06:44:22;100839.72;;;8.75;55.59
26697;BME280;14312;52.614;13.496;2023-04-26T06:47:08;100853.53;;;8.84;55.23
26697;BME280;14312;52.614;13.496;2023-04-26T06:49:55;100837.97;;;8.87;55.28
26697;BME280;14312;52.614;13.496;2023-04-26T06:52:42;100850.69;;;8.97;54.72
26697;BME280;14312;52.614;13.496;2023-04-26T06:55:27;100850.03;;;9.01;54.95
26697;BME280;14312;52.614;13.496;2023-04-26T06:58:13;100843.81;;;9.08;55.09
26697;BME280;14312;52.614;13.496;2023-04-26T07:00:59;100842.94;;;9.14;55.13
26697;BME280;14312;52.614;13.496;2023-04-26T07:03:45;100848.97;;;9.21;55.00
26697;BME280;14312;52.614;13.496;2023-04-26T07:06:32;100848.88;;;9.27;54.66
26697;BME280;14312;52.614;13.496;2023-04-26T07:09:18;100848.78;;;9.34;54.85
26697;BME280;14312;52.614;13.496;2023-04-26T07:12:04;100852.16;;;9.41;54.63
26697;BME280;14312;52.614;13.496;2023-04-26T07:14:50;100853.91;;;9.47;54.55
26697;BME280;14312;52.614;13.496;2023-04-26T07:17:36;100842.34;;;9.53;54.36
26697;BME280;14312;52.614;13.496;2023-04-26T07:20:21;100852.06;;;9.59;54.68
26697;BME280;14312;52.614;13.496;2023-04-26T07:23:08;100852.34;;;9.69;54.66
26697;BME280;14312;52.614;13.496;2023-04-26T07:25:54;100857.34;;;9.77;54.53
26697;BME280;14312;52.614;13.496;2023-04-26T07:28:40;100858.63;;;9.87;54.32
26697;BME280;14312;52.614;13.496;2023-04-26T07:31:26;100855.59;;;9.95;54.27
26697;BME280;14312;52.614;13.496;2023-04-26T07:34:12;100872.63;;;10.05;54.09
26697;BME280;14312;52.614;13.496;2023-04-26T07:36:58;100854.47;;;10.14;54.04
26697;BME280;14312;52.614;13.496;2023-04-26T07:39:44;100865.38;;;10.24;54.29
26697;BME280;14312;52.614;13.496;2023-04-26T07:42:30;100860.28;;;10.34;54.05
26697;BME280;14312;52.614;13.496;2023-04-26T07:45:16;100858.91;;;10.43;53.47
26697;BME280;14312;52.614;13.496;2023-04-26T07:48:02;100860.72;;;10.54;53.56
26697;BME280;14312;52.614;13.496;2023-04-26T07:50:48;100862.59;;;10.66;53.43
26697;BME280;14312;52.614;13.496;2023-04-26T07:53:34;100875.88;;;10.77;53.32
26697;BME280;14312;52.614;13.496;2023-04-26T07:56:20;100869.00;;;10.93;53.19
26697;BME280;14312;52.614;13.496;2023-04-26T07:59:08;100864.44;;;11.05;52.35
26697;BME280;14312;52.614;13.496;2023-04-26T08:01:54;100866.16;;;11.11;52.03
26697;BME280;14312;52.614;13.496;2023-04-26T08:04:46;100872.16;;;11.18;51.73
26697;BME280;14312;52.614;13.496;2023-04-26T08:07:34;100869.56;;;11.23;51.48
26697;BME280;14312;52.614;13.496;2023-04-26T08:10:19;100863.78;;;11.26;51.67
26697;BME280;14312;52.614;13.496;2023-04-26T08:13:05;100872.69;;;11.32;51.57
26697;BME280;14312;52.614;13.496;2023-04-26T08:15:51;100863.47;;;11.39;51.30
26697;BME280;14312;52.614;13.496;2023-04-26T08:18:38;100878.06;;;11.49;50.71
26697;BME280;14312;52.614;13.496;2023-04-26T08:21:24;100873.84;;;11.53;50.45
26697;BME280;14312;52.614;13.496;2023-04-26T08:24:11;100862.22;;;11.59;50.64
26697;BME280;14312;52.614;13.496;2023-04-26T08:26:57;100862.88;;;11.66;50.31
26697;BME280;14312;52.614;13.496;2023-04-26T08:29:45;100856.94;;;11.75;50.53
26697;BME280;14312;52.614;13.496;2023-04-26T08:32:31;100870.13;;;11.82;50.52
26697;BME280;14312;52.614;13.496;2023-04-26T08:35:18;100865.50;;;11.94;50.17
26697;BME280;14312;52.614;13.496;2023-04-26T08:38:04;100868.59;;;12.03;49.37
26697;BME280;14312;52.614;13.496;2023-04-26T08:40:51;100884.94;;;12.06;48.97
26697;BME280;14312;52.614;13.496;2023-04-26T08:43:37;100872.63;;;12.05;48.82
26697;BME280;14312;52.614;13.496;2023-04-26T08:46:24;100875.25;;;12.00;48.70
26697;BME280;14312;52.614;13.496;2023-04-26T08:52:16;100880.88;;;11.87;48.54
26697;BME280;14312;52.614;13.496;2023-04-26T08:55:10;100881.84;;;11.81;48.56
26697;BME280;14312;52.614;13.496;2023-04-26T08:57:58;100880.22;;;11.80;49.10
26697;BME280;14312;52.614;13.496;2023-04-26T09:00:45;100866.88;;;11.80;49.16
26697;BME280;14312;52.614;13.496;2023-04-26T09:03:31;100887.19;;;11.81;48.83
26697;BME280;14312;52.614;13.496;2023-04-26T09:06:18;100885.56;;;11.80;48.76
26697;BME280;14312;52.614;13.496;2023-04-26T09:09:08;100878.63;;;11.79;48.81
26697;BME280;14312;52.614;13.496;2023-04-26T09:11:59;100879.75;;;11.83;49.04
26697;BME280;14312;52.614;13.496;2023-04-26T09:14:46;100886.78;;;11.89;49.59
26697;BME280;14312;52.614;13.496;2023-04-26T09:17:34;100894.00;;;12.05;49.57
26697;BME280;14312;52.614;13.496;2023-04-26T09:20:26;100895.94;;;12.27;48.72
26697;BME280;14312;52.614;13.496;2023-04-26T09:23:12;100895.13;;;12.43;48.26
26697;BME280;14312;52.614;13.496;2023-04-26T09:26:17;100890.53;;;12.60;48.08
26697;BME280;14312;52.614;13.496;2023-04-26T09:29:17;100884.34;;;12.76;47.58
26697;BME280;14312;52.614;13.496;2023-04-26T09:32:03;100894.34;;;12.86;47.21
26697;BME280;14312;52.614;13.496;2023-04-26T09:34:49;100877.56;;;12.90;46.57
26697;BME280;14312;52.614;13.496;2023-04-26T09:37:35;100883.97;;;12.89;46.08
26697;BME280;14312;52.614;13.496;2023-04-26T09:40:22;100892.19;;;12.83;45.85
26697;BME280;14312;52.614;13.496;2023-04-26T09:43:15;100893.91;;;12.72;45.48
26697;BME280;14312;52.614;13.496;2023-04-26T09:46:02;100900.13;;;12.56;45.79
26697;BME280;14312;52.614;13.496;2023-04-26T09:48:59;100910.34;;;12.42;45.09
26697;BME280;14312;52.614;13.496;2023-04-26T09:51:59;100903.38;;;12.25;46.01
26697;BME280;14312;52.614;13.496;2023-04-26T09:54:49;100906.97;;;12.13;46.55
26697;BME280;14312;52.614;13.496;2023-04-26T09:57:42;100890.28;;;12.06;47.69
26697;BME280;14312;52.614;13.496;2023-04-26T10:00:29;100901.94;;;12.17;48.40
26697;BME280;14312;52.614;13.496;2023-04-26T10:03:17;100890.09;;;12.30;48.77
26697;BME280;14312;52.614;13.496;2023-04-26T10:06:05;100893.63;;;12.52;48.19
26697;BME280;14312;52.614;13.496;2023-04-26T10:08:51;100883.72;;;12.69;47.95
26697;BME280;14312;52.614;13.496;2023-04-26T10:11:37;100888.13;;;12.80;47.57
26697;BME280;14312;52.614;13.496;2023-04-26T10:14:23;100888.22;;;12.85;46.98
26697;BME280;14312;52.614;13.496;2023-04-26T10:17:10;100895.16;;;12.86;46.96
26697;BME280;14312;52.614;13.496;2023-04-26T10:19:59;100888.69;;;12.82;46.32
26697;BME280;14312;52.614;13.496;2023-04-26T10:22:51;100877.66;;;12.79;45.50
26697;BME280;14312;52.614;13.496;2023-04-26T10:25:47;100894.81;;;12.78;45.49
26697;BME280;14312;52.614;13.496;2023-04-26T10:35:11;100875.31;;;12.82;45.51
26697;BME280;14312;52.614;13.496;2023-04-26T10:40:46;100885.78;;;12.84;44.80
26697;BME280;14312;52.614;13.496;2023-04-26T10:43:36;100895.66;;;12.83;44.74
26697;BME280;14312;52.614;13.496;2023-04-26T10:46:39;100881.78;;;12.86;45.04
26697;BME280;14312;52.614;13.496;2023-04-26T10:49:26;100883.72;;;12.91;44.69
26697;BME280;14312;52.614;13.496;2023-04-26T10:52:16;100889.13;;;12.96;43.96
26697;BME280;14312;52.614;13.496;2023-04-26T10:55:04;100896.91;;;12.98;44.06
26697;BME280;14312;52.614;13.496;2023-04-26T10:57:51;100892.63;;;12.97;43.58
26697;BME280;14312;52.614;13.496;2023-04-26T11:00:38;100885.06;;;12.93;44.35
26697;BME280;14312;52.614;13.496;2023-04-26T11:03:24;100893.66;;;12.95;44.33
26697;BME280;14312;52.614;13.496;2023-04-26T11:06:11;100888.31;;;12.95;44.49
26697;BME280;14312;52.614;13.496;2023-04-26T11:09:00;100898.34;;;13.05;44.90
26697;BME280;14312;52.614;13.496;2023-04-26T11:11:52;100895.56;;;13.17;44.98
26697;BME280;14312;52.614;13.496;2023-04-26T11:14:40;100895.97;;;13.30;44.83
26697;BME280;14312;52.614;13.496;2023-04-26T11:17:26;100861.25;;;13.36;44.62
26697;BME280;14312;52.614;13.496;2023-04-26T11:20:15;100880.50;;;13.64;44.93
26697;BME280;14312;52.614;13.496;2023-04-26T11:23:01;100887.75;;;13.96;44.98
26697;BME280;14312;52.614;13.496;2023-04-26T11:25:48;100899.75;;;14.20;44.31
26697;BME280;14312;52.614;13.496;2023-04-26T11:28:36;100907.88;;;14.35;43.23
26697;BME280;14312;52.614;13.496;2023-04-26T11:31:23;100903.28;;;14.31;42.65
26697;BME280;14312;52.614;13.496;2023-04-26T11:34:09;100894.09;;;14.22;42.79
26697;BME280;14312;52.614;13.496;2023-04-26T11:36:55;100907.69;;;14.10;42.93
26697;BME280;14312;52.614;13.496;2023-04-26T11:39:43;100894.75;;;13.97;42.79
26697;BME280;14312;52.614;13.496;2023-04-26T11:42:29;100912.09;;;13.89;42.97
26697;BME280;14312;52.614;13.496;2023-04-26T11:45:17;100905.31;;;13.82;43.06
26697;BME280;14312;52.614;13.496;2023-04-26T11:48:05;100898.88;;;13.78;43.52
26697;BME280;14312;52.614;13.496;2023-04-26T11:50:52;100898.59;;;13.79;43.23
26697;BME280;14312;52.614;13.496;2023-04-26T11:53:40;100899.72;;;13.83;43.54
26697;BME280;14312;52.614;13.496;2023-04-26T11:56:26;100893.59;;;13.88;43.66
26697;BME280;14312;52.614;13.496;2023-04-26T11:59:22;100907.06;;;13.98;43.14
26697;BME280;14312;52.614;13.496;2023-04-26T12:02:08;100908.41;;;14.00;43.07
26697;BME280;14312;52.614;13.496;2023-04-26T12:04:57;100917.78;;;13.98;42.92
26697;BME280;14312;52.614;13.496;2023-04-26T12:07:48;100910.22;;;13.90;42.86
26697;BME280;14312;52.614;13.496;2023-04-26T12:10:35;100910.69;;;13.82;42.93
26697;BME280;14312;52.614;13.496;2023-04-26T12:13:21;100908.50;;;13.79;43.15
26697;BME280;14312;52.614;13.496;2023-04-26T12:16:11;100901.47;;;13.72;43.10
26697;BME280;14312;52.614;13.496;2023-04-26T12:18:57;100915.19;;;13.76;43.25
26697;BME280;14312;52.614;13.496;2023-04-26T12:21:43;100898.53;;;13.69;42.83
26697;BME280;14312;52.614;13.496;2023-04-26T12:24:30;100907.66;;;13.73;42.80
26697;BME280;14312;52.614;13.496;2023-04-26T12:27:21;100909.22;;;13.69;42.90
26697;BME280;14312;52.614;13.496;2023-04-26T12:30:08;100899.75;;;13.56;42.60
26697;BME280;14312;52.614;13.496;2023-04-26T12:32:54;100904.63;;;13.64;42.54
26697;BME280;14312;52.614;13.496;2023-04-26T12:35:41;100913.78;;;13.68;42.85
26697;BME280;14312;52.614;13.496;2023-04-26T12:38:27;100912.75;;;13.75;42.20
26697;BME280;14312;52.614;13.496;2023-04-26T12:41:13;100913.34;;;13.82;42.30
26697;BME280;14312;52.614;13.496;2023-04-26T12:43:59;100901.63;;;13.88;42.39
26697;BME280;14312;52.614;13.496;2023-04-26T12:46:45;100911.88;;;13.96;42.16
26697;BME280;14312;52.614;13.496;2023-04-26T12:49:31;100887.75;;;13.96;42.02
26697;BME280;14312;52.614;13.496;2023-04-26T12:52:17;100910.88;;;14.07;42.30
26697;BME280;14312;52.614;13.496;2023-04-26T12:55:03;100918.97;;;14.12;41.17
26697;BME280;14312;52.614;13.496;2023-04-26T12:57:49;100909.81;;;14.08;41.34
26697;BME280;14312;52.614;13.496;2023-04-26T13:00:35;100916.47;;;14.00;41.28
26697;BME280;14312;52.614;13.496;2023-04-26T13:03:21;100895.16;;;13.84;41.45
26697;BME280;14312;52.614;13.496;2023-04-26T13:06:07;100911.78;;;13.86;41.63
26697;BME280;14312;52.614;13.496;2023-04-26T13:08:54;100910.13;;;13.80;41.55
26697;BME280;14312;52.614;13.496;2023-04-26T13:11:40;100909.03;;;13.76;41.74
26697;BME280;14312;52.614;13.496;2023-04-26T13:14:26;100912.75;;;13.75;42.14
26697;BME280;14312;52.614;13.496;2023-04-26T13:17:12;100905.28;;;13.77;42.02
26697;BME280;14312;52.614;13.496;2023-04-26T13:19:58;100900.53;;;13.84;41.84
26697;BME280;14312;52.614;13.496;2023-04-26T13:22:44;100916.75;;;13.99;41.91
26697;BME280;14312;52.614;13.496;2023-04-26T13:25:30;100915.78;;;14.15;41.91
26697;BME280;14312;52.614;13.496;2023-04-26T13:28:16;100916.47;;;14.37;41.86
26697;BME280;14312;52.614;13.496;2023-04-26T13:31:01;100913.69;;;14.59;41.33
26697;BME280;14312;52.614;13.496;2023-04-26T13:33:48;100922.41;;;14.76;40.73
26697;BME280;14312;52.614;13.496;2023-04-26T13:36:34;100918.09;;;14.75;40.37
26697;BME280;14312;52.614;13.496;2023-04-26T13:39:20;100923.16;;;14.72;39.89
26697;BME280;14312;52.614;13.496;2023-04-26T13:42:06;100917.44;;;14.58;40.24
26697;BME280;14312;52.614;13.496;2023-04-26T13:44:52;100930.50;;;14.44;39.88
26697;BME280;14312;52.614;13.496;2023-04-26T13:47:38;100939.47;;;14.28;39.95
26697;BME280;14312;52.614;13.496;2023-04-26T13:50:24;100931.56;;;14.11;40.25
26697;BME280;14312;52.614;13.496;2023-04-26T13:53:10;100937.38;;;13.98;40.53
26697;BME280;14312;52.614;13.496;2023-04-26T13:55:56;100933.22;;;13.86;40.83
26697;BME280;14312;52.614;13.496;2023-04-26T13:58:42;100940.16;;;13.82;40.78
26697;BME280;14312;52.614;13.496;2023-04-26T14:01:28;100930.81;;;13.84;41.47
26697;BME280;14312;52.614;13.496;2023-04-26T14:04:14;100934.38;;;13.95;41.68
26697;BME280;14312;52.614;13.496;2023-04-26T14:07:00;100936.16;;;14.16;41.66
26697;BME280;14312;52.614;13.496;2023-04-26T14:09:46;100945.13;;;14.32;41.11
26697;BME280;14312;52.614;13.496;2023-04-26T14:12:33;100937.47;;;14.40;40.67
26697;BME280;14312;52.614;13.496;2023-04-26T14:15:19;100936.13;;;14.43;40.60
26697;BME280;14312;52.614;13.496;2023-04-26T14:18:07;100941.78;;;14.46;40.96
26697;BME280;14312;52.614;13.496;2023-04-26T14:20:53;100942.38;;;14.59;41.21
26697;BME280;14312;52.614;13.496;2023-04-26T14:23:39;100943.06;;;14.81;41.27
26697;BME280;14312;52.614;13.496;2023-04-26T14:26:25;100927.34;;;15.05;40.50
26697;BME280;14312;52.614;13.496;2023-04-26T14:29:11;100930.38;;;15.23;39.68
26697;BME280;14312;52.614;13.496;2023-04-26T14:31:57;100940.06;;;15.29;39.04
26697;BME280;14312;52.614;13.496;2023-04-26T14:34:43;100933.63;;;15.31;39.36
26697;BME280;14312;52.614;13.496;2023-04-26T14:37:29;100935.81;;;15.44;39.49
26697;BME280;14312;52.614;13.496;2023-04-26T14:40:16;100933.47;;;15.62;39.07